createdAt,value
2022-12-11T00:02:13.134Z,-0.20
2022-12-11T00:06:19.131Z,-0.10
2022-12-11T00:10:23.446Z,-0.10
2022-12-11T00:14:27.291Z,-0.20
2022-12-11T00:18:30.316Z,-0.10
2022-12-11T00:22:33.238Z,-0.10
2022-12-11T00:26:37.522Z,-0.20
2022-12-11T00:30:42.671Z,-0.10
2022-12-11T00:34:46.078Z,-0.10
2022-12-11T00:38:49.798Z,-0.10
2022-12-11T00:42:54.086Z,-0.10
2022-12-11T00:46:56.914Z,-0.10
2022-12-11T00:51:00.283Z,-0.10
2022-12-11T00:55:03.189Z,-0.10
2022-12-11T00:59:07.451Z,-0.10
2022-12-11T01:03:11.026Z,-0.10
2022-12-11T01:07:13.966Z,-0.10
2022-12-11T01:11:18.208Z,-0.10
2022-12-11T01:15:24.085Z,-0.10
2022-12-11T01:19:26.954Z,-0.10
2022-12-11T01:23:30.426Z,-0.10
2022-12-11T01:27:33.400Z,-0.10
2022-12-11T01:31:37.789Z,0.00
2022-12-11T01:35:41.194Z,-0.10
2022-12-11T01:39:44.146Z,-0.10
2022-12-11T01:44:03.001Z,-0.10
2022-12-11T01:48:12.043Z,-0.10
2022-12-11T01:52:20.650Z,-0.10
2022-12-11T01:56:24.283Z,0.00
2022-12-11T02:00:27.167Z,0.00
2022-12-11T02:04:32.989Z,0.00
2022-12-11T02:08:39.024Z,0.00
2022-12-11T02:12:52.864Z,0.00
2022-12-11T02:17:01.125Z,0.00
2022-12-11T02:21:11.820Z,0.00
2022-12-11T02:25:21.817Z,-0.10
2022-12-11T02:29:34.123Z,-0.10
2022-12-11T02:33:42.674Z,-0.10
2022-12-11T02:37:47.922Z,-0.20
2022-12-11T02:41:52.301Z,-0.20
2022-12-11T02:45:57.769Z,-0.20
2022-12-11T02:50:05.945Z,-0.20
2022-12-11T02:54:13.553Z,-0.20
2022-12-11T02:58:19.928Z,-0.10
2022-12-11T03:02:24.348Z,-0.20
2022-12-11T03:06:32.829Z,-0.20
2022-12-11T03:10:35.827Z,-0.10
2022-12-11T03:14:40.346Z,-0.10
2022-12-11T03:18:53.493Z,-0.10
2022-12-11T03:23:03.952Z,-0.10
2022-12-11T03:27:15.773Z,-0.10
2022-12-11T03:31:23.639Z,0.00
2022-12-11T03:35:31.967Z,0.00
2022-12-11T03:39:39.345Z,0.00
2022-12-11T03:43:43.157Z,0.00
2022-12-11T03:47:47.484Z,0.00
2022-12-11T03:51:54.199Z,-0.10
2022-12-11T03:55:59.945Z,0.00
2022-12-11T04:00:04.968Z,0.00
2022-12-11T04:04:14.936Z,0.00
2022-12-11T04:08:20.786Z,0.00
2022-12-11T04:12:23.760Z,0.10
2022-12-11T04:16:26.609Z,0.10
2022-12-11T04:20:47.520Z,0.10
2022-12-11T04:24:51.861Z,0.10
2022-12-11T04:28:55.062Z,0.10
2022-12-11T04:32:57.959Z,0.10
2022-12-11T04:37:00.904Z,0.10
2022-12-11T04:41:08.543Z,0.10
2022-12-11T04:45:12.905Z,0.20
2022-12-11T04:49:15.940Z,0.20
2022-12-11T04:53:18.819Z,0.20
2022-12-11T04:57:23.095Z,0.20
2022-12-11T05:01:25.941Z,0.20
2022-12-11T05:05:28.849Z,0.20
2022-12-11T05:09:31.721Z,0.20
2022-12-11T05:13:36.056Z,0.20
2022-12-11T05:17:39.177Z,0.30
2022-12-11T05:21:42.159Z,0.30
2022-12-11T05:25:52.205Z,0.20
2022-12-11T05:29:59.606Z,0.30
2022-12-11T05:34:03.372Z,0.30
2022-12-11T05:38:06.316Z,0.30
2022-12-11T05:42:09.329Z,0.30
2022-12-11T05:46:15.226Z,0.40
2022-12-11T05:50:18.592Z,0.40
2022-12-11T05:54:21.555Z,0.40
2022-12-11T05:58:24.465Z,0.40
2022-12-11T06:02:28.792Z,0.40
2022-12-11T06:06:31.893Z,0.40
2022-12-11T06:10:35.311Z,0.40
2022-12-11T06:14:38.199Z,0.40
2022-12-11T06:18:45.172Z,0.40
2022-12-11T06:22:48.315Z,0.50
2022-12-11T06:26:51.159Z,0.40
2022-12-11T06:30:54.023Z,0.50
2022-12-11T06:34:58.238Z,0.40
2022-12-11T06:39:01.089Z,0.50
2022-12-11T06:43:04.019Z,0.50
2022-12-11T06:47:07.037Z,0.50
2022-12-11T06:51:13.424Z,0.50
2022-12-11T06:55:16.539Z,0.40
2022-12-11T06:59:19.418Z,0.40
2022-12-11T07:03:22.360Z,0.40
2022-12-11T07:07:26.601Z,0.40
2022-12-11T07:11:32.342Z,0.40
2022-12-11T07:15:40.469Z,0.50
2022-12-11T07:19:43.509Z,0.40
2022-12-11T07:23:48.671Z,0.40
2022-12-11T07:27:51.552Z,0.40
2022-12-11T07:31:54.578Z,0.40
2022-12-11T07:35:57.617Z,0.40
2022-12-11T07:40:01.818Z,0.40
2022-12-11T07:44:05.260Z,0.40
2022-12-11T07:48:08.275Z,0.40
2022-12-11T07:52:11.149Z,0.40
2022-12-11T07:56:15.723Z,0.40
2022-12-11T08:00:19.206Z,0.40
2022-12-11T08:04:22.031Z,0.40
2022-12-11T08:08:24.942Z,0.40
2022-12-11T08:12:29.156Z,0.40
2022-12-11T08:16:32.808Z,0.40
2022-12-11T08:20:35.795Z,0.40
2022-12-11T08:24:38.737Z,0.40
2022-12-11T08:28:43.092Z,0.40
2022-12-11T08:32:46.629Z,0.40
2022-12-11T08:36:49.490Z,0.50
2022-12-11T08:40:52.388Z,0.50
2022-12-11T08:44:56.738Z,0.50
2022-12-11T08:49:00.438Z,0.50
2022-12-11T08:53:03.378Z,0.50
2022-12-11T08:57:06.347Z,0.50
2022-12-11T09:01:12.754Z,0.50
2022-12-11T09:05:15.756Z,0.50
2022-12-11T09:09:19.704Z,0.50
2022-12-11T09:13:22.551Z,0.50
2022-12-11T09:17:26.935Z,0.50
2022-12-11T09:21:31.489Z,0.50
2022-12-11T09:25:34.405Z,0.50
2022-12-11T09:29:37.301Z,0.50
2022-12-11T09:33:41.810Z,0.50
2022-12-11T09:37:44.694Z,0.50
2022-12-11T09:41:53.706Z,0.50
2022-12-11T09:45:56.938Z,0.50
2022-12-11T09:50:07.593Z,0.60
2022-12-11T09:54:13.828Z,0.60
2022-12-11T09:58:26.719Z,0.60
2022-12-11T10:02:42.257Z,0.60
2022-12-11T10:06:51.553Z,0.60
2022-12-11T10:11:01.941Z,0.60
2022-12-11T10:15:30.655Z,0.60
2022-12-11T10:19:34.309Z,0.60
2022-12-11T10:23:44.822Z,0.60
2022-12-11T10:27:48.014Z,0.60
2022-12-11T10:31:54.628Z,0.60
2022-12-11T10:35:59.439Z,0.60
2022-12-11T10:40:03.971Z,0.50
2022-12-11T10:44:17.447Z,0.60
2022-12-11T10:48:20.513Z,0.60
2022-12-11T10:52:26.631Z,0.60
2022-12-11T10:56:33.592Z,0.60
2022-12-11T11:00:38.363Z,0.60
2022-12-11T11:04:44.971Z,0.60
2022-12-11T11:08:50.332Z,0.60
2022-12-11T11:13:03.060Z,0.60
2022-12-11T11:17:06.672Z,0.60
2022-12-11T11:21:17.545Z,0.60
2022-12-11T11:25:22.763Z,0.50
2022-12-11T11:29:31.869Z,0.50
2022-12-11T11:33:37.686Z,0.50
2022-12-11T11:37:41.846Z,0.60
2022-12-11T11:41:51.550Z,0.60
2022-12-11T11:45:59.336Z,0.60
2022-12-11T11:50:09.309Z,0.60
2022-12-11T11:54:25.089Z,0.60
2022-12-11T11:58:36.069Z,0.60
2022-12-11T12:02:46.994Z,0.60
2022-12-11T12:07:08.658Z,0.60
2022-12-11T12:11:21.594Z,0.60
2022-12-11T12:15:34.844Z,0.60
2022-12-11T12:19:52.999Z,0.60
2022-12-11T12:24:14.605Z,0.60
2022-12-11T12:28:31.431Z,0.60
2022-12-11T12:32:44.812Z,0.50
2022-12-11T12:36:59.407Z,0.50
2022-12-11T12:41:14.207Z,0.50
2022-12-11T12:45:27.365Z,0.50
2022-12-11T12:49:40.195Z,0.50
2022-12-11T12:53:50.643Z,0.50
2022-12-11T12:57:57.457Z,0.50
2022-12-11T13:02:03.059Z,0.50
2022-12-11T13:06:10.346Z,0.50
2022-12-11T13:10:28.528Z,0.50
2022-12-11T13:14:33.632Z,0.50
2022-12-11T13:18:38.564Z,0.50
2022-12-11T13:22:50.942Z,0.60
2022-12-11T13:26:55.651Z,0.60
2022-12-11T13:31:08.512Z,0.60
2022-12-11T13:35:17.329Z,0.60
2022-12-11T13:39:24.903Z,0.60
2022-12-11T13:43:32.476Z,0.60
2022-12-11T13:47:37.477Z,0.60
2022-12-11T13:51:41.737Z,0.60
2022-12-11T13:55:45.330Z,0.70
2022-12-11T13:59:53.069Z,0.60
2022-12-11T14:03:58.572Z,0.70
2022-12-11T14:08:08.278Z,0.70
2022-12-11T14:12:18.447Z,0.70
2022-12-11T14:16:24.880Z,0.70
2022-12-11T14:20:30.118Z,0.70
2022-12-11T14:24:33.768Z,0.70
2022-12-11T14:28:39.360Z,0.70
2022-12-11T14:32:45.788Z,0.70
2022-12-11T14:36:50.290Z,0.70
2022-12-11T14:40:57.560Z,0.70
2022-12-11T14:45:08.016Z,0.70
2022-12-11T14:49:21.804Z,0.70
2022-12-11T14:53:27.401Z,0.70
2022-12-11T14:57:31.990Z,0.70
2022-12-11T15:01:36.914Z,0.60
2022-12-11T15:05:50.791Z,0.60
2022-12-11T15:09:54.205Z,0.60
2022-12-11T15:13:59.118Z,0.60
2022-12-11T15:18:06.011Z,0.60
2022-12-11T15:22:15.528Z,0.60
2022-12-11T15:26:35.463Z,0.50
2022-12-11T15:30:38.694Z,0.60
2022-12-11T15:34:45.396Z,0.50
2022-12-11T15:38:49.630Z,0.50
2022-12-11T15:42:54.789Z,0.50
2022-12-11T15:46:57.721Z,0.40
2022-12-11T15:51:00.685Z,0.40
2022-12-11T15:55:06.851Z,0.40
2022-12-11T15:59:11.869Z,0.40
2022-12-11T16:03:16.433Z,0.40
2022-12-11T16:07:21.264Z,0.40
2022-12-11T16:11:25.453Z,0.40
2022-12-11T16:15:28.616Z,0.40
2022-12-11T16:19:31.710Z,0.40
2022-12-11T16:23:34.711Z,0.40
2022-12-11T16:27:38.946Z,0.40
2022-12-11T16:31:41.744Z,0.40
2022-12-11T16:35:51.191Z,0.40
2022-12-11T16:39:56.515Z,0.40
2022-12-11T16:44:03.558Z,0.40
2022-12-11T16:48:07.143Z,0.40
2022-12-11T16:52:10.548Z,0.40
2022-12-11T16:56:13.699Z,0.40
2022-12-11T17:00:18.707Z,0.40
2022-12-11T17:04:21.813Z,0.40
2022-12-11T17:08:24.889Z,0.40
2022-12-11T17:12:28.842Z,0.40
2022-12-11T17:16:33.960Z,0.40
2022-12-11T17:20:41.705Z,0.40
2022-12-11T17:24:44.933Z,0.40
2022-12-11T17:28:50.108Z,0.30
2022-12-11T17:32:54.510Z,0.30
2022-12-11T17:36:57.789Z,0.30
2022-12-11T17:41:01.363Z,0.30
2022-12-11T17:45:10.270Z,0.30
2022-12-11T17:49:16.727Z,0.30
2022-12-11T17:53:21.371Z,0.30
2022-12-11T17:57:24.521Z,0.30
2022-12-11T18:01:27.466Z,0.30
2022-12-11T18:05:31.804Z,0.30
2022-12-11T18:09:35.722Z,0.30
2022-12-11T18:13:41.275Z,0.30
2022-12-11T18:17:47.064Z,0.30
2022-12-11T18:21:55.239Z,0.30
2022-12-11T18:25:58.342Z,0.30
2022-12-11T18:30:01.286Z,0.30
2022-12-11T18:34:06.009Z,0.30
2022-12-11T18:38:12.597Z,0.40
2022-12-11T18:46:39.374Z,0.40
2022-12-11T18:50:53.449Z,0.40
2022-12-11T18:54:58.530Z,0.40
2022-12-11T18:59:02.182Z,0.30
2022-12-11T19:03:09.378Z,0.40
2022-12-11T19:07:15.416Z,0.30
2022-12-11T19:11:23.060Z,0.30
2022-12-11T19:15:34.694Z,0.40
2022-12-11T19:19:37.929Z,0.30
2022-12-11T19:23:41.224Z,0.30
2022-12-11T19:27:49.992Z,0.30
2022-12-11T19:31:53.862Z,0.30
2022-12-11T19:36:02.628Z,0.30
2022-12-11T19:40:07.157Z,0.30
2022-12-11T19:44:11.736Z,0.40
2022-12-11T19:48:14.736Z,0.30
2022-12-11T19:52:17.689Z,0.30
2022-12-11T19:56:21.324Z,0.30
2022-12-11T20:00:25.640Z,0.30
2022-12-11T20:04:28.709Z,0.30
2022-12-11T20:08:46.981Z,0.30
2022-12-11T20:12:50.204Z,0.30
2022-12-11T20:17:13.782Z,0.30
2022-12-11T20:21:19.962Z,0.20
2022-12-11T20:25:23.915Z,0.30
2022-12-11T20:29:26.863Z,0.30
2022-12-11T20:33:31.111Z,0.30
2022-12-11T20:37:34.592Z,0.30
2022-12-11T20:41:37.444Z,0.30
2022-12-11T20:45:40.378Z,0.30
2022-12-11T20:49:44.700Z,0.30
2022-12-11T20:53:47.560Z,0.30
2022-12-11T20:57:50.416Z,0.30
2022-12-11T21:01:53.351Z,0.30
2022-12-11T21:05:57.530Z,0.30
2022-12-11T21:10:00.440Z,0.30
2022-12-11T21:14:03.686Z,0.30
2022-12-11T21:18:07.225Z,0.20
2022-12-11T21:22:11.416Z,0.20
2022-12-11T21:26:21.841Z,0.20
2022-12-11T21:30:24.816Z,0.20
2022-12-11T21:34:28.344Z,0.20
2022-12-11T21:38:32.691Z,0.20
2022-12-11T21:42:35.703Z,0.20
2022-12-11T21:46:38.743Z,0.20
2022-12-11T21:50:44.830Z,0.20
2022-12-11T21:54:49.288Z,0.20
2022-12-11T21:58:54.238Z,0.20
2022-12-11T22:02:57.109Z,0.20
2022-12-11T22:07:00.086Z,0.20
2022-12-11T22:11:05.011Z,0.20
2022-12-11T22:15:09.700Z,0.20
2022-12-11T22:19:13.776Z,0.20
2022-12-11T22:23:16.796Z,0.20
2022-12-11T22:27:23.852Z,0.20
2022-12-11T22:31:28.186Z,0.20
2022-12-11T22:35:31.161Z,0.20
2022-12-11T22:39:33.959Z,0.20
2022-12-11T22:43:38.451Z,0.20
2022-12-11T22:47:41.405Z,0.20
2022-12-11T22:51:44.772Z,0.20
2022-12-11T22:55:47.703Z,0.20
2022-12-11T22:59:52.152Z,0.20
2022-12-11T23:03:55.365Z,0.20
2022-12-11T23:07:59.399Z,0.20
2022-12-11T23:12:02.559Z,0.10
2022-12-11T23:16:07.093Z,0.10
2022-12-11T23:20:11.229Z,0.10
2022-12-11T23:24:14.106Z,0.10
2022-12-11T23:28:16.968Z,0.10
2022-12-11T23:32:21.445Z,0.10
2022-12-11T23:36:24.867Z,0.10
2022-12-11T23:40:27.725Z,0.10
2022-12-11T23:44:30.650Z,0.10
2022-12-11T23:48:34.870Z,0.10
2022-12-11T23:52:37.736Z,0.10
2022-12-11T23:56:40.652Z,0.10
